Time;durP1;ratioP1;P1;durP2;ratioP2;P2;SDS_P1;SDS_P2;PMS_P1;PMS_P2;Temp;Humidity;BMP_temperature;BMP_pressure;BME280_temperature;BME280_humidity;BME280_pressure;Samples;Min_cycle;Max_cycle;Signal;HPM_P1;HPM_P2
2023/09/27 00:01:48;;;;;;;;;;;;;;;22.12;30.10;98258.53;5077041;28;1364;-77
2023/09/27 00:04:13;;;;;;;;;;;;;;;22.18;29.88;98257.56;5094701;28;1140;-77
2023/09/27 00:06:39;;;;;;;;;;;;;;;21.96;30.17;98250.78;5077673;28;988;-77
2023/09/27 00:09:07;;;;;;;;;;;;;;;22.11;30.02;98260.56;5077519;28;1971;-77
2023/09/27 00:11:33;;;;;;;;;;;;;;;22.18;29.93;98246.22;5077871;28;987;-77
2023/09/27 00:13:58;;;;;;;;;;;;;;;22.19;29.80;98253.50;5095156;28;971;-77
2023/09/27 00:16:24;;;;;;;;;;;;;;;22.18;29.87;98239.78;5059582;28;1480;-77
2023/09/27 00:18:49;;;;;;;;;;;;;;;22.12;29.88;98242.31;5042680;28;1416;-77
2023/09/27 00:21:15;;;;;;;;;;;;;;;22.32;29.39;98240.19;5057802;28;1058;-76
2023/09/27 00:23:40;;;;;;;;;;;;;;;22.25;29.72;98234.69;5040900;28;1230;-77
2023/09/27 00:26:06;;;;;;;;;;;;;;;22.27;29.51;98232.22;5057246;28;1178;-77
2023/09/27 00:28:31;;;;;;;;;;;;;;;22.12;29.83;98230.97;5054805;28;1985;-77
2023/09/27 00:30:57;;;;;;;;;;;;;;;22.18;29.70;98225.59;5038646;28;1074;-77
2023/09/27 00:33:23;;;;;;;;;;;;;;;22.32;29.35;98231.69;5037306;28;1314;-77
2023/09/27 00:35:49;;;;;;;;;;;;;;;22.17;29.54;98221.94;5037489;28;1145;-76
2023/09/27 00:38:14;;;;;;;;;;;;;;;22.45;29.21;98225.28;5020830;28;1027;-77
2023/09/27 00:40:43;;;;;;;;;;;;;;;22.24;29.59;98223.81;5054237;28;958;-77
2023/09/27 00:43:09;;;;;;;;;;;;;;;22.18;29.49;98217.88;5036693;28;1394;-77
2023/09/27 00:45:34;;;;;;;;;;;;;;;22.33;29.59;98221.94;5037238;28;1144;-77
2023/09/27 00:48:00;;;;;;;;;;;;;;;22.22;29.65;98217.78;5037251;28;1965;-77
2023/09/27 00:50:26;;;;;;;;;;;;;;;21.97;29.88;98224.06;5057012;28;1274;-77
2023/09/27 00:52:52;;;;;;;;;;;;;;;22.21;29.86;98234.00;5057270;28;962;-77
2023/09/27 00:55:19;;;;;;;;;;;;;;;22.32;29.54;98228.84;5057274;28;976;-77
2023/09/27 00:57:45;;;;;;;;;;;;;;;22.24;29.42;98230.28;5052102;28;1552;-77
2023/09/27 01:00:11;;;;;;;;;;;;;;;22.17;29.74;98238.94;5052211;28;1495;-77
2023/09/27 01:02:37;;;;;;;;;;;;;;;22.11;29.81;98229.38;5037075;28;1055;-77
2023/09/27 01:05:03;;;;;;;;;;;;;;;22.15;29.81;98232.94;5053712;28;1040;-77
2023/09/27 01:07:28;;;;;;;;;;;;;;;22.32;29.35;98240.19;5053456;28;1898;-77
2023/09/27 01:09:54;;;;;;;;;;;;;;;22.44;29.22;98230.19;5054956;28;1357;-77
2023/09/27 01:12:20;;;;;;;;;;;;;;;22.12;29.62;98230.97;5073622;28;1173;-77
2023/09/27 01:14:45;;;;;;;;;;;;;;;21.85;29.98;98234.84;5073599;28;1273;-77
2023/09/27 01:17:11;;;;;;;;;;;;;;;21.99;29.87;98238.56;5073763;28;1157;-77
2023/09/27 01:19:37;;;;;;;;;;;;;;;22.03;29.51;98233.63;5073402;28;1056;-77
2023/09/27 01:22:02;;;;;;;;;;;;;;;22.07;29.63;98228.66;5073584;28;1074;-77
2023/09/27 01:24:28;;;;;;;;;;;;;;;22.24;29.31;98233.13;5088995;28;1393;-77
2023/09/27 01:26:54;;;;;;;;;;;;;;;22.01;29.72;98225.53;5053812;28;1954;-77
2023/09/27 01:29:19;;;;;;;;;;;;;;;22.23;29.32;98223.03;5054820;28;1142;-77
2023/09/27 01:31:45;;;;;;;;;;;;;;;22.17;29.58;98213.44;5054423;28;1025;-77
2023/09/27 01:34:10;;;;;;;;;;;;;;;22.27;29.09;98220.88;5071235;28;1038;-77
2023/09/27 01:36:36;;;;;;;;;;;;;;;22.14;29.53;98208.69;5071533;28;1224;-77
2023/09/27 01:39:02;;;;;;;;;;;;;;;22.17;29.48;98216.28;5071152;28;1291;-77
2023/09/27 01:41:27;;;;;;;;;;;;;;;22.06;29.78;98215.72;5070447;28;1393;-77
2023/09/27 01:43:53;;;;;;;;;;;;;;;22.08;29.67;98218.94;5054523;28;1140;-77
2023/09/27 01:46:18;;;;;;;;;;;;;;;21.90;29.88;98216.50;5054534;28;1120;-77
2023/09/27 01:48:44;;;;;;;;;;;;;;;22.01;30.01;98219.09;5055309;28;1902;-77
2023/09/27 01:51:09;;;;;;;;;;;;;;;22.13;29.68;98215.59;5088077;28;1001;-77
2023/09/27 01:53:35;;;;;;;;;;;;;;;21.95;29.95;98212.34;5038086;28;1261;-77
2023/09/27 01:56:02;;;;;;;;;;;;;;;22.12;29.40;98213.97;5073198;28;1420;-76
2023/09/27 01:58:28;;;;;;;;;;;;;;;22.09;29.77;98217.69;5091278;28;1464;-76
2023/09/27 02:00:53;;;;;;;;;;;;;;;22.18;29.67;98223.56;5074412;28;1409;-77
2023/09/27 02:03:20;;;;;;;;;;;;;;;22.25;29.44;98217.69;5092750;28;1672;-77
2023/09/27 02:05:46;;;;;;;;;;;;;;;22.19;29.57;98219.47;5094721;28;1219;-77
2023/09/27 02:08:12;;;;;;;;;;;;;;;22.27;29.26;98215.19;5110411;28;1897;-77
2023/09/27 02:10:38;;;;;;;;;;;;;;;22.24;29.30;98216.09;5065293;28;1319;-77
2023/09/27 02:13:03;;;;;;;;;;;;;;;22.05;29.55;98214.13;5091147;28;905;-77
2023/09/27 02:15:29;;;;;;;;;;;;;;;21.95;29.97;98209.53;5057907;28;1248;-77
2023/09/27 02:17:54;;;;;;;;;;;;;;;22.06;29.85;98215.72;5074141;28;1144;-77
2023/09/27 02:20:20;;;;;;;;;;;;;;;22.29;29.35;98207.06;5057703;28;1117;-77
2023/09/27 02:22:49;;;;;;;;;;;;;;;21.83;30.10;98209.00;5057901;28;1153;-77
2023/09/27 02:25:16;;;;;;;;;;;;;;;21.99;30.06;98204.56;5100203;28;1365;-77
2023/09/27 02:27:44;;;;;;;;;;;;;;;22.10;29.81;98205.09;5038956;28;1897;-77
2023/09/27 02:30:13;;;;;;;;;;;;;;;22.04;29.78;98202.00;5036267;28;1131;-77
2023/09/27 02:32:41;;;;;;;;;;;;;;;22.25;29.62;98216.91;5039179;28;1345;-77
2023/09/27 02:35:10;;;;;;;;;;;;;;;21.99;29.79;98211.03;5063807;28;1359;-77
2023/09/27 02:37:38;;;;;;;;;;;;;;;22.19;29.72;98219.47;5032850;28;1652;-77
2023/09/27 02:40:11;;;;;;;;;;;;;;;22.06;29.93;98212.88;4956569;29;1366;-77
2023/09/27 02:42:50;;;;;;;;;;;;;;;22.12;29.61;98213.97;4942828;29;1101;-77
2023/09/27 02:45:15;;;;;;;;;;;;;;;22.03;29.91;98217.41;4942230;29;969;-77
2023/09/27 02:47:45;;;;;;;;;;;;;;;22.03;29.73;98210.97;4941716;29;1978;-77
2023/09/27 02:50:11;;;;;;;;;;;;;;;21.98;29.82;98223.63;4926292;29;994;-77
2023/09/27 02:52:38;;;;;;;;;;;;;;;22.10;29.73;98213.59;4909517;29;1274;-77
2023/09/27 02:55:04;;;;;;;;;;;;;;;22.05;30.05;98222.63;4915525;29;1433;-77
2023/09/27 02:57:29;;;;;;;;;;;;;;;21.85;30.39;98222.72;4881666;29;1304;-77
2023/09/27 02:59:55;;;;;;;;;;;;;;;22.14;29.96;98217.19;4921812;29;1362;-77
2023/09/27 03:02:21;;;;;;;;;;;;;;;22.12;29.94;98230.19;4919333;29;1173;-77
2023/09/27 03:04:47;;;;;;;;;;;;;;;22.02;29.94;98226.34;4903657;29;1103;-77
2023/09/27 03:07:14;;;;;;;;;;;;;;;22.04;30.10;98218.22;4919042;29;1908;-77
2023/09/27 03:09:39;;;;;;;;;;;;;;;22.16;29.54;98217.53;4939294;28;1140;-77
2023/09/27 03:12:06;;;;;;;;;;;;;;;22.13;29.68;98224.09;4947239;28;1219;-77
2023/09/27 03:14:32;;;;;;;;;;;;;;;22.25;29.55;98222.56;4952584;28;1420;-77
2023/09/27 03:16:58;;;;;;;;;;;;;;;22.31;29.53;98221.59;4948689;28;1390;-77
2023/09/27 03:19:23;;;;;;;;;;;;;;;22.00;30.13;98214.66;4960608;28;1447;-77
2023/09/27 03:21:49;;;;;;;;;;;;;;;21.87;30.34;98214.59;4960345;28;1230;-77
2023/09/27 03:24:14;;;;;;;;;;;;;;;21.87;30.38;98219.47;4960500;28;1072;-77
2023/09/27 03:26:40;;;;;;;;;;;;;;;21.95;30.00;98216.00;4974671;28;1118;-78
2023/09/27 03:29:05;;;;;;;;;;;;;;;21.84;30.54;98213.41;4979542;28;1935;-77
2023/09/27 03:31:31;;;;;;;;;;;;;;;21.97;30.25;98212.72;4979281;28;1423;-77
2023/09/27 03:33:57;;;;;;;;;;;;;;;22.06;29.88;98227.06;4986897;28;1070;-77
2023/09/27 03:36:22;;;;;;;;;;;;;;;22.05;29.98;98214.13;5039803;28;1149;-77
2023/09/27 03:38:48;;;;;;;;;;;;;;;21.88;30.23;98219.00;5072673;28;1349;-77
2023/09/27 03:41:14;;;;;;;;;;;;;;;21.98;30.11;98220.00;5057086;28;1398;-77
2023/09/27 03:43:39;;;;;;;;;;;;;;;22.21;29.71;98216.97;5089673;28;909;-77
2023/09/27 03:46:05;;;;;;;;;;;;;;;22.28;29.23;98219.66;5073114;28;960;-77
2023/09/27 03:48:32;;;;;;;;;;;;;;;22.05;29.63;98214.13;5072260;28;1972;-77
2023/09/27 03:50:57;;;;;;;;;;;;;;;22.00;29.65;98211.84;5091326;28;1195;-77
2023/09/27 03:53:25;;;;;;;;;;;;;;;22.11;29.64;98215.22;5074192;28;1325;-77
2023/09/27 03:55:50;;;;;;;;;;;;;;;22.23;29.70;98217.34;5074442;28;1832;-77
2023/09/27 03:58:16;;;;;;;;;;;;;;;22.14;29.61;98220.00;5077940;28;1583;-77
2023/09/27 04:00:42;;;;;;;;;;;;;;;22.28;29.66;98228.16;5074227;28;1015;-77
2023/09/27 04:03:08;;;;;;;;;;;;;;;22.26;29.30;98227.78;5057594;28;1675;-77
2023/09/27 04:05:34;;;;;;;;;;;;;;;21.99;29.99;98227.25;5074356;28;1170;-77
2023/09/27 04:08:00;;;;;;;;;;;;;;;22.00;29.88;98223.97;5091325;28;1980;-77
2023/09/27 04:10:27;;;;;;;;;;;;;;;22.04;29.88;98223.88;5074401;28;956;-77
2023/09/27 04:12:53;;;;;;;;;;;;;;;22.04;29.95;98230.34;5091038;28;920;-77
2023/09/27 04:15:19;;;;;;;;;;;;;;;22.03;30.05;98234.41;5074374;28;1122;-77
2023/09/27 04:17:44;;;;;;;;;;;;;;;22.10;29.76;98233.44;5074072;28;1042;-77
2023/09/27 04:20:17;;;;;;;;;;;;;;;21.97;30.09;98229.72;5074571;28;999;-77
2023/09/27 04:22:44;;;;;;;;;;;;;;;21.97;30.02;98229.72;5073185;28;1134;-77
2023/09/27 04:25:12;;;;;;;;;;;;;;;21.95;30.34;98226.53;5040061;28;1256;-77
2023/09/27 04:27:38;;;;;;;;;;;;;;;22.12;29.99;98230.97;5074066;28;1905;-77
2023/09/27 04:30:04;;;;;;;;;;;;;;;22.10;30.04;98233.44;5071552;28;939;-77
2023/09/27 04:32:29;;;;;;;;;;;;;;;22.27;29.66;98237.88;5075338;28;1186;-77
2023/09/27 04:34:55;;;;;;;;;;;;;;;22.32;29.47;98234.50;5075337;28;922;-77
2023/09/27 04:37:21;;;;;;;;;;;;;;;22.12;30.00;98236.66;5075173;28;941;-77
2023/09/27 04:39:47;;;;;;;;;;;;;;;22.06;29.90;98238.38;5076679;28;942;-77
2023/09/27 04:42:12;;;;;;;;;;;;;;;22.21;29.71;98238.88;5074648;28;1272;-77
2023/09/27 04:44:38;;;;;;;;;;;;;;;21.97;30.50;98241.06;5083216;28;1196;-77
2023/09/27 04:47:03;;;;;;;;;;;;;;;22.06;30.40;98244.06;5074885;28;1910;-77
2023/09/27 04:49:29;;;;;;;;;;;;;;;22.01;30.32;98248.22;5057386;28;1121;-77
2023/09/27 04:51:54;;;;;;;;;;;;;;;21.97;30.34;98247.53;5087704;28;1256;-79
2023/09/27 04:54:20;;;;;;;;;;;;;;;22.18;30.44;98240.56;5072143;28;1324;-79
2023/09/27 04:56:45;;;;;;;;;;;;;;;22.16;30.18;98243.03;5087350;28;1311;-76
2023/09/27 04:59:11;;;;;;;;;;;;;;;22.05;30.63;98237.59;5085745;28;1334;-77
2023/09/27 05:01:37;;;;;;;;;;;;;;;22.32;30.01;98245.06;5087275;28;1322;-77
2023/09/27 05:04:02;;;;;;;;;;;;;;;22.27;30.24;98243.53;5086302;28;1289;-77
2023/09/27 05:06:28;;;;;;;;;;;;;;;22.21;30.73;98251.00;5087138;28;1221;-77
2023/09/27 05:08:54;;;;;;;;;;;;;;;22.20;30.69;98252.25;5082059;28;1910;-77
2023/09/27 05:11:20;;;;;;;;;;;;;;;22.04;31.10;98252.22;5088486;28;1284;-77
2023/09/27 05:13:48;;;;;;;;;;;;;;;22.10;31.00;98244.78;5076633;28;1276;-77
2023/09/27 05:16:14;;;;;;;;;;;;;;;22.21;30.71;98245.31;5082919;28;1316;-77
2023/09/27 05:18:40;;;;;;;;;;;;;;;22.18;30.94;98251.91;5103545;28;1361;-78
2023/09/27 05:21:06;;;;;;;;;;;;;;;22.43;30.68;98251.25;5079271;28;1266;-77
2023/09/27 05:23:31;;;;;;;;;;;;;;;22.40;30.69;98254.19;5062347;28;1061;-77
2023/09/27 05:25:57;;;;;;;;;;;;;;;22.14;31.17;98251.19;5091680;28;1228;-77
2023/09/27 05:28:23;;;;;;;;;;;;;;;22.09;31.53;98254.53;5075959;28;1978;-77
2023/09/27 05:30:48;;;;;;;;;;;;;;;22.07;31.59;98251.31;5108322;28;947;-78
2023/09/27 05:33:14;;;;;;;;;;;;;;;22.11;31.48;98252.06;5075833;28;961;-77
2023/09/27 05:35:39;;;;;;;;;;;;;;;22.10;31.32;98256.09;5074776;28;1213;-78
2023/09/27 05:38:05;;;;;;;;;;;;;;;22.10;31.50;98262.59;5094684;28;981;-77
2023/09/27 05:40:31;;;;;;;;;;;;;;;22.23;31.18;98259.88;5097553;28;1376;-79
2023/09/27 05:42:56;;;;;;;;;;;;;;;22.32;31.12;98245.84;5080035;28;1211;-78
2023/09/27 05:45:22;;;;;;;;;;;;;;;22.49;30.99;98265.72;5097374;28;1129;-78
2023/09/27 05:47:47;;;;;;;;;;;;;;;22.51;31.15;98264.00;5114583;28;1981;-79
2023/09/27 05:50:13;;;;;;;;;;;;;;;22.56;30.72;98266.31;5097321;28;1248;-78
2023/09/27 05:52:43;;;;;;;;;;;;;;;22.31;31.55;98261.28;5097669;28;1127;-78
2023/09/27 05:55:08;;;;;;;;;;;;;;;22.45;31.07;98270.66;5114197;28;1031;-78
2023/09/27 05:57:34;;;;;;;;;;;;;;;22.53;30.99;98272.06;5080331;28;943;-78
2023/09/27 06:00:00;;;;;;;;;;;;;;;22.34;31.29;98274.56;5079987;28;1131;-78
2023/09/27 06:02:30;;;;;;;;;;;;;;;22.30;31.69;98271.03;5064200;28;1292;-78
2023/09/27 06:04:56;;;;;;;;;;;;;;;22.23;31.78;98271.22;5080545;28;1040;-78
2023/09/27 06:07:22;;;;;;;;;;;;;;;22.44;31.34;98269.88;5080462;28;1918;-78
2023/09/27 06:09:48;;;;;;;;;;;;;;;22.22;31.83;98269.59;5063550;28;1180;-78
2023/09/27 06:12:14;;;;;;;;;;;;;;;22.20;32.27;98272.09;5080267;28;1106;-78
2023/09/27 06:14:41;;;;;;;;;;;;;;;22.40;31.70;98265.53;5080525;28;909;-78
2023/09/27 06:17:07;;;;;;;;;;;;;;;22.40;31.92;98276.88;5097021;28;1028;-78
2023/09/27 06:19:32;;;;;;;;;;;;;;;22.46;31.78;98272.25;5076360;28;1160;-78
2023/09/27 06:21:58;;;;;;;;;;;;;;;22.28;32.35;98279.19;5076465;28;1173;-78
2023/09/27 06:24:26;;;;;;;;;;;;;;;22.31;32.47;98271.81;5036347;28;1043;-78
2023/09/27 06:26:52;;;;;;;;;;;;;;;22.32;32.30;98268.53;5003678;28;968;-78
2023/09/27 06:29:19;;;;;;;;;;;;;;;22.68;31.74;98278.16;5020149;28;1965;-78
2023/09/27 06:31:49;;;;;;;;;;;;;;;22.54;31.92;98270.84;4987714;28;990;-78
2023/09/27 06:34:15;;;;;;;;;;;;;;;22.48;32.13;98264.09;5000352;28;949;-78
2023/09/27 06:36:42;;;;;;;;;;;;;;;22.60;31.57;98272.69;5033624;28;1475;-78
2023/09/27 06:39:14;;;;;;;;;;;;;;;22.40;32.26;98280.50;5016831;28;1015;-78
2023/09/27 06:41:40;;;;;;;;;;;;;;;22.51;32.25;98268.88;5000170;28;1298;-78
2023/09/27 06:44:07;;;;;;;;;;;;;;;22.44;32.22;98263.41;4999420;28;1223;-77
2023/09/27 06:46:36;;;;;;;;;;;;;;;22.60;32.06;98283.22;5016764;28;944;-77
2023/09/27 06:49:02;;;;;;;;;;;;;;;22.59;32.16;98271.09;5015250;28;1906;-78
2023/09/27 06:51:27;;;;;;;;;;;;;;;22.57;32.19;98284.09;5034038;28;955;-79
2023/09/27 06:53:53;;;;;;;;;;;;;;;22.50;32.10;98278.63;5052702;28;972;-76
2023/09/27 06:56:18;;;;;;;;;;;;;;;22.56;32.12;98276.84;5052615;28;1134;-76
2023/09/27 06:58:44;;;;;;;;;;;;;;;22.56;32.19;98283.31;5052405;28;1242;-76
2023/09/27 07:01:10;;;;;;;;;;;;;;;22.55;32.07;98275.25;5063268;28;990;-76
2023/09/27 07:03:36;;;;;;;;;;;;;;;22.57;31.83;98286.94;5093597;28;1232;-77
2023/09/27 07:06:02;;;;;;;;;;;;;;;22.64;31.84;98289.63;5093551;28;927;-76
2023/09/27 07:08:28;;;;;;;;;;;;;;;22.51;32.38;98281.03;5110455;28;1970;-77
2023/09/27 07:10:53;;;;;;;;;;;;;;;22.43;32.54;98290.13;5078281;28;882;-76
2023/09/27 07:13:19;;;;;;;;;;;;;;;22.51;32.42;98291.56;5093516;28;1100;-76
2023/09/27 07:15:45;;;;;;;;;;;;;;;22.54;32.22;98290.69;5078054;28;999;-76
2023/09/27 07:18:12;;;;;;;;;;;;;;;22.71;32.19;98295.09;5076909;28;1104;-76
2023/09/27 07:20:40;;;;;;;;;;;;;;;22.60;32.51;98283.22;5110378;28;894;-76
2023/09/27 07:23:07;;;;;;;;;;;;;;;22.75;32.13;98295.78;5076962;28;1033;-76
2023/09/27 07:25:37;;;;;;;;;;;;;;;22.74;32.38;98285.69;5093057;28;1271;-76
2023/09/27 07:28:06;;;;;;;;;;;;;;;22.55;32.68;98300.78;5077747;28;1906;-76
2023/09/27 07:30:35;;;;;;;;;;;;;;;22.67;32.40;98280.19;5109446;28;896;-76
2023/09/27 07:33:03;;;;;;;;;;;;;;;22.73;32.32;98298.25;5059787;28;1422;-77
2023/09/27 07:35:32;;;;;;;;;;;;;;;22.62;32.33;98286.41;5076539;28;981;-76
2023/09/27 07:37:58;;;;;;;;;;;;;;;22.60;32.69;98297.41;5092489;28;920;-76
2023/09/27 07:40:24;;;;;;;;;;;;;;;22.41;32.80;98286.97;5109993;28;1224;-76
2023/09/27 07:42:51;;;;;;;;;;;;;;;22.62;32.42;98286.41;5110037;28;964;-76
2023/09/27 07:45:22;;;;;;;;;;;;;;;22.66;32.47;98292.78;5109582;28;891;-77
2023/09/27 07:47:50;;;;;;;;;;;;;;;22.77;32.28;98304.66;5107981;28;1987;-76
2023/09/27 07:50:15;;;;;;;;;;;;;;;22.70;32.47;98293.50;5091301;28;984;-76
2023/09/27 07:52:42;;;;;;;;;;;;;;;22.62;32.25;98309.91;5058293;28;997;-76
2023/09/27 07:55:09;;;;;;;;;;;;;;;22.55;32.77;98306.47;5057944;28;1099;-76
2023/09/27 07:57:36;;;;;;;;;;;;;;;22.54;32.53;98299.19;5041654;28;1259;-76
2023/09/27 08:00:08;;;;;;;;;;;;;;;22.68;32.46;98300.84;5038032;28;1247;-77
2023/09/27 08:02:38;;;;;;;;;;;;;;;22.77;32.30;98304.66;5039134;28;990;-76
2023/09/27 08:05:09;;;;;;;;;;;;;;;22.69;32.56;98300.41;5038096;28;1078;-76
2023/09/27 08:07:38;;;;;;;;;;;;;;;22.69;32.50;98303.25;5038726;28;1906;-76
2023/09/27 08:10:04;;;;;;;;;;;;;;;22.72;32.21;98302.34;5037675;28;1074;-76
2023/09/27 08:12:31;;;;;;;;;;;;;;;22.58;32.65;98297.84;5038308;28;1266;-76
2023/09/27 08:15:05;;;;;;;;;;;;;;;22.66;32.49;98303.34;5005193;28;1307;-76
2023/09/27 08:17:32;;;;;;;;;;;;;;;22.59;32.23;98310.00;5038237;28;1048;-76
2023/09/27 08:19:57;;;;;;;;;;;;;;;22.49;32.60;98322.41;5021319;28;1142;-77
2023/09/27 08:22:23;;;;;;;;;;;;;;;22.76;32.04;98314.41;5057215;28;955;-76
2023/09/27 08:24:48;;;;;;;;;;;;;;;22.84;31.61;98306.50;5073908;28;1045;-77
2023/09/27 08:27:15;;;;;;;;;;;;;;;22.69;31.99;98308.09;5074339;28;1913;-77
2023/09/27 08:29:42;;;;;;;;;;;;;;;22.70;31.74;98304.84;5074017;28;1042;-76
2023/09/27 08:32:08;;;;;;;;;;;;;;;22.57;32.26;98315.31;5075896;28;877;-76
2023/09/27 08:34:34;;;;;;;;;;;;;;;22.65;32.13;98321.59;5108419;28;923;-76
2023/09/27 08:37:00;;;;;;;;;;;;;;;22.73;31.60;98318.13;5091865;28;1194;-76
2023/09/27 08:39:28;;;;;;;;;;;;;;;22.74;31.51;98319.75;5108793;28;931;-76
2023/09/27 08:41:57;;;;;;;;;;;;;;;22.75;31.33;98312.81;5076060;28;972;-76
2023/09/27 08:44:22;;;;;;;;;;;;;;;22.84;31.09;98324.31;5091364;28;1291;-76
2023/09/27 08:46:48;;;;;;;;;;;;;;;22.60;31.41;98317.25;5091444;28;974;-76
2023/09/27 08:49:13;;;;;;;;;;;;;;;22.46;31.77;98307.06;5114208;28;1917;-76
2023/09/27 08:51:39;;;;;;;;;;;;;;;22.69;31.21;98314.59;5097396;28;1019;-77
2023/09/27 08:54:05;;;;;;;;;;;;;;;22.81;30.61;98319.53;5056668;28;1292;-77
2023/09/27 08:56:30;;;;;;;;;;;;;;;22.86;30.71;98318.22;5073814;28;951;-76
2023/09/27 08:58:56;;;;;;;;;;;;;;;22.64;31.08;98315.13;5040632;28;953;-76
2023/09/27 09:01:21;;;;;;;;;;;;;;;22.77;30.72;98321.66;5056835;28;1253;-76
2023/09/27 09:03:47;;;;;;;;;;;;;;;22.58;31.15;98325.41;5040247;28;976;-76
2023/09/27 09:06:12;;;;;;;;;;;;;;;22.81;30.46;98333.72;5056596;28;1016;-76
2023/09/27 09:08:38;;;;;;;;;;;;;;;22.66;30.80;98332.50;5056801;28;1918;-77
2023/09/27 09:11:06;;;;;;;;;;;;;;;22.57;30.76;98338.00;5040235;28;1141;-77
2023/09/27 09:13:52;;;;;;;;;;;;;;;22.69;30.86;98334.47;5040215;28;956;-78
2023/09/27 09:16:23;;;;;;;;;;;;;;;22.81;30.60;98335.78;5040484;28;1305;-77
2023/09/27 09:18:51;;;;;;;;;;;;;;;22.75;30.35;98329.84;5024506;28;1335;-77
2023/09/27 09:21:18;;;;;;;;;;;;;;;22.54;30.63;98330.38;4987654;28;967;-78
2023/09/27 09:23:48;;;;;;;;;;;;;;;22.68;30.58;98335.69;5000863;28;1272;-78
2023/09/27 09:26:23;;;;;;;;;;;;;;;22.71;30.80;98329.13;5036528;28;1461;-77
2023/09/27 09:28:56;;;;;;;;;;;;;;;22.74;30.35;98333.94;5053555;28;1965;-77
2023/09/27 09:31:22;;;;;;;;;;;;;;;22.86;30.39;98324.69;5055314;28;1009;-77
2023/09/27 09:33:56;;;;;;;;;;;;;;;22.85;30.44;98328.75;5024128;28;939;-77
2023/09/27 09:36:26;;;;;;;;;;;;;;;22.72;30.56;98319.38;5037873;28;1026;-77
2023/09/27 09:38:52;;;;;;;;;;;;;;;22.70;30.39;98336.06;5040400;28;972;-77
2023/09/27 09:41:17;;;;;;;;;;;;;;;22.86;30.01;98321.84;5023856;28;1033;-77
2023/09/27 09:43:43;;;;;;;;;;;;;;;22.74;30.44;98322.56;5061141;28;1019;-78
2023/09/27 09:46:10;;;;;;;;;;;;;;;22.62;30.78;98328.94;5112262;28;929;-77
2023/09/27 09:48:36;;;;;;;;;;;;;;;22.60;30.77;98322.94;5077867;28;1910;-77
2023/09/27 09:51:08;;;;;;;;;;;;;;;22.61;30.67;98327.38;5094816;28;1174;-77
2023/09/27 09:53:36;;;;;;;;;;;;;;;22.54;30.97;98327.56;5079102;28;903;-77
2023/09/27 09:56:03;;;;;;;;;;;;;;;22.68;30.72;98324.34;5094799;28;915;-77
2023/09/27 09:58:40;;;;;;;;;;;;;;;22.76;30.36;98330.63;5111195;28;883;-77
2023/09/27 10:01:06;;;;;;;;;;;;;;;22.59;30.58;98324.19;5094851;28;929;-77
2023/09/27 10:03:33;;;;;;;;;;;;;;;22.58;30.88;98322.56;5079219;28;911;-78
2023/09/27 10:06:01;;;;;;;;;;;;;;;22.74;30.33;98316.91;5078659;28;789;-78
2023/09/27 10:08:30;;;;;;;;;;;;;;;22.62;30.49;98309.09;5094083;28;1922;-77
2023/09/27 10:10:55;;;;;;;;;;;;;;;22.79;30.40;98307.03;5093631;28;919;-77
2023/09/27 10:13:21;;;;;;;;;;;;;;;22.66;30.53;98314.69;5078618;28;900;-77
2023/09/27 10:15:47;;;;;;;;;;;;;;;22.87;30.23;98314.91;5110448;28;2033;-77
2023/09/27 10:18:22;;;;;;;;;;;;;;;22.83;30.10;98313.41;5077215;28;901;-77
2023/09/27 10:20:56;;;;;;;;;;;;;;;22.40;30.91;98308.84;5078603;28;903;-77
2023/09/27 10:23:22;;;;;;;;;;;;;;;22.44;31.13;98315.25;5076080;28;810;-77
2023/09/27 10:25:47;;;;;;;;;;;;;;;22.54;30.79;98314.16;5060706;28;1397;-78
2023/09/27 10:28:15;;;;;;;;;;;;;;;22.90;30.37;98312.44;5077445;28;1910;-77
2023/09/27 10:30:40;;;;;;;;;;;;;;;22.40;31.16;98310.88;5075695;28;1208;-79
2023/09/27 10:33:15;;;;;;;;;;;;;;;22.66;30.69;98312.66;5076032;28;804;-79
2023/09/27 10:35:43;;;;;;;;;;;;;;;22.58;30.62;98319.72;5055763;28;1188;-79
2023/09/27 10:38:10;;;;;;;;;;;;;;;22.62;30.65;98326.13;5022629;28;1418;-78
2023/09/27 10:40:42;;;;;;;;;;;;;;;22.58;30.48;98309.19;5039067;28;930;-79
2023/09/27 10:43:08;;;;;;;;;;;;;;;22.80;30.23;98298.09;5038947;28;791;-79
2023/09/27 10:45:33;;;;;;;;;;;;;;;22.90;30.04;98306.78;5055794;28;943;-79
2023/09/27 10:48:18;;;;;;;;;;;;;;;22.77;30.19;98310.31;5038803;28;1976;-78
2023/09/27 10:50:53;;;;;;;;;;;;;;;22.52;30.42;98304.50;5039471;28;774;-78
2023/09/27 10:53:18;;;;;;;;;;;;;;;22.62;30.40;98314.78;5038802;28;855;-78
2023/09/27 10:55:44;;;;;;;;;;;;;;;22.65;30.28;98302.53;5038974;28;878;-78
2023/09/27 10:58:16;;;;;;;;;;;;;;;22.74;30.28;98297.03;5055427;28;786;-78
2023/09/27 11:00:51;;;;;;;;;;;;;;;22.92;30.17;98304.31;5041283;28;869;-79
2023/09/27 11:03:16;;;;;;;;;;;;;;;22.84;30.26;98298.78;5075191;28;960;-78
2023/09/27 11:05:44;;;;;;;;;;;;;;;22.66;30.56;98311.84;5092923;28;866;-78
2023/09/27 11:08:10;;;;;;;;;;;;;;;22.62;30.68;98303.44;5109930;28;1909;-78
2023/09/27 11:10:36;;;;;;;;;;;;;;;22.65;30.56;98296.88;5076497;28;1144;-78
2023/09/27 11:13:09;;;;;;;;;;;;;;;22.95;30.05;98283.53;5054959;28;1325;-78
2023/09/27 11:15:35;;;;;;;;;;;;;;;22.87;30.21;98289.38;5071708;28;978;-78
2023/09/27 11:18:01;;;;;;;;;;;;;;;22.75;30.29;98298.63;5054908;28;1139;-78
2023/09/27 11:20:26;;;;;;;;;;;;;;;22.80;30.19;98275.41;5055098;28;708;-78
2023/09/27 11:22:58;;;;;;;;;;;;;;;22.91;29.93;98302.72;5071921;28;795;-78
2023/09/27 11:25:31;;;;;;;;;;;;;;;22.74;30.17;98291.38;5054810;28;1179;-78
2023/09/27 11:27:56;;;;;;;;;;;;;;;22.71;30.53;98288.63;5054394;28;1906;-78
2023/09/27 11:30:26;;;;;;;;;;;;;;;22.76;30.11;98291.72;5055058;28;1495;-78
2023/09/27 11:32:52;;;;;;;;;;;;;;;22.77;30.08;98287.63;5071084;28;984;-76
2023/09/27 11:35:20;;;;;;;;;;;;;;;22.84;30.14;98293.09;5054780;28;1058;-76
2023/09/27 11:37:45;;;;;;;;;;;;;;;22.80;30.09;98306.59;5071415;28;946;-77
2023/09/27 11:40:11;;;;;;;;;;;;;;;22.69;30.21;98277.72;5071102;28;995;-77
2023/09/27 11:42:37;;;;;;;;;;;;;;;22.74;30.00;98277.19;5054713;28;917;-77
2023/09/27 11:45:08;;;;;;;;;;;;;;;22.54;30.53;98273.69;5075242;28;920;-77
2023/09/27 11:47:46;;;;;;;;;;;;;;;22.64;30.13;98300.97;5092214;28;1898;-78
2023/09/27 11:50:13;;;;;;;;;;;;;;;22.48;30.52;98295.28;5075578;28;1442;-79
2023/09/27 11:52:39;;;;;;;;;;;;;;;22.58;30.54;98291.38;5091968;28;1548;-78
2023/09/27 11:55:06;;;;;;;;;;;;;;;22.61;30.33;98296.16;5092380;28;801;-77
2023/09/27 11:57:31;;;;;;;;;;;;;;;22.49;30.42;98291.22;5075091;28;920;-78
2023/09/27 11:59:57;;;;;;;;;;;;;;;22.57;30.63;98295.47;5076637;28;801;-78
2023/09/27 12:02:22;;;;;;;;;;;;;;;22.77;29.94;98286.84;5076601;28;865;-78
2023/09/27 12:04:48;;;;;;;;;;;;;;;22.92;29.72;98281.59;5108896;28;981;-78
2023/09/27 12:07:14;;;;;;;;;;;;;;;22.65;30.25;98277.03;5075145;28;1976;-78
2023/09/27 12:09:39;;;;;;;;;;;;;;;22.68;30.14;98284.63;5076363;28;842;-78
2023/09/27 12:12:04;;;;;;;;;;;;;;;22.80;29.74;98280.28;5091395;28;1221;-78
2023/09/27 12:14:30;;;;;;;;;;;;;;;22.82;29.79;98289.13;5076260;28;1113;-79
2023/09/27 12:16:55;;;;;;;;;;;;;;;22.75;30.13;98284.44;5040398;28;1329;-78
2023/09/27 12:19:21;;;;;;;;;;;;;;;22.96;29.64;98271.75;5099788;28;1384;-78
2023/09/27 12:21:47;;;;;;;;;;;;;;;22.62;30.14;98275.84;5099895;28;1330;-78
2023/09/27 12:24:12;;;;;;;;;;;;;;;22.54;30.37;98270.84;5057547;28;1213;-78
2023/09/27 12:26:38;;;;;;;;;;;;;;;22.42;30.34;98282.88;5090139;28;1348;-78
2023/09/27 12:29:03;;;;;;;;;;;;;;;22.63;30.35;98270.97;5074259;28;1913;-78
2023/09/27 12:31:29;;;;;;;;;;;;;;;22.42;30.76;98265.88;5080415;28;1331;-78
2023/09/27 12:33:54;;;;;;;;;;;;;;;22.45;30.44;98253.66;5074290;28;1268;-78
2023/09/27 12:36:21;;;;;;;;;;;;;;;22.44;30.64;98247.19;5075493;28;1264;-78
2023/09/27 12:38:46;;;;;;;;;;;;;;;22.66;30.39;98257.97;5074351;28;1204;-78
2023/09/27 12:41:13;;;;;;;;;;;;;;;22.59;30.16;98259.75;5099653;28;1215;-78
2023/09/27 12:43:39;;;;;;;;;;;;;;;22.52;30.29;98247.78;5074333;28;1292;-77
2023/09/27 12:46:05;;;;;;;;;;;;;;;22.55;30.16;98258.25;5057365;28;1365;-77
2023/09/27 12:48:30;;;;;;;;;;;;;;;22.63;29.82;98262.47;5099295;28;1906;-77
2023/09/27 12:50:56;;;;;;;;;;;;;;;22.52;30.14;98247.78;5074645;28;1227;-77
2023/09/27 12:53:21;;;;;;;;;;;;;;;22.66;30.15;98255.91;5074177;28;1395;-77
2023/09/27 12:55:47;;;;;;;;;;;;;;;22.50;30.18;98256.75;5075970;28;1213;-77
2023/09/27 12:58:15;;;;;;;;;;;;;;;22.49;30.38;98245.84;5099763;28;1231;-77